sensor_id;sensor_type;location;lat;lon;timestamp;temperature;humidity
32614;DHT22;19031;51.400;6.770;2022-09-23T00:00:29;9.10;99.90
32614;DHT22;19031;51.400;6.770;2022-09-23T00:02:55;9.10;99.90
32614;DHT22;19031;51.400;6.770;2022-09-23T00:05:22;9.10;99.90
32614;DHT22;19031;51.400;6.770;2022-09-23T00:07:47;9.20;99.90
32614;DHT22;19031;51.400;6.770;2022-09-23T00:10:13;9.10;99.90
32614;DHT22;19031;51.400;6.770;2022-09-23T00:12:39;9.10;99.90
32614;DHT22;19031;51.400;6.770;2022-09-23T00:15:05;9.10;99.90
32614;DHT22;19031;51.400;6.770;2022-09-23T00:17:31;9.00;99.90
32614;DHT22;19031;51.400;6.770;2022-09-23T00:19:57;9.10;99.90
32614;DHT22;19031;51.400;6.770;2022-09-23T00:22:23;9.10;99.90
32614;DHT22;19031;51.400;6.770;2022-09-23T00:24:48;9.10;99.80
32614;DHT22;19031;51.400;6.770;2022-09-23T00:27:14;9.10;99.60
32614;DHT22;19031;51.400;6.770;2022-09-23T00:29:40;9.00;99.50
32614;DHT22;19031;51.400;6.770;2022-09-23T00:32:05;9.10;99.60
32614;DHT22;19031;51.400;6.770;2022-09-23T00:34:31;9.00;99.80
32614;DHT22;19031;51.400;6.770;2022-09-23T00:36:57;9.10;99.90
32614;DHT22;19031;51.400;6.770;2022-09-23T00:39:23;9.00;99.70
32614;DHT22;19031;51.400;6.770;2022-09-23T00:41:50;9.00;99.80
32614;DHT22;19031;51.400;6.770;2022-09-23T00:47:04;9.00;99.80
32614;DHT22;19031;51.400;6.770;2022-09-23T00:49:33;9.00;99.90
32614;DHT22;19031;51.400;6.770;2022-09-23T00:52:04;9.00;99.80
32614;DHT22;19031;51.400;6.770;2022-09-23T00:54:31;9.00;99.90
32614;DHT22;19031;51.400;6.770;2022-09-23T00:56:58;9.00;99.90
32614;DHT22;19031;51.400;6.770;2022-09-23T00:59:24;9.00;99.80
32614;DHT22;19031;51.400;6.770;2022-09-23T01:01:52;9.00;99.90
32614;DHT22;19031;51.400;6.770;2022-09-23T01:04:24;9.00;99.70
32614;DHT22;19031;51.400;6.770;2022-09-23T01:06:51;9.00;99.70
32614;DHT22;19031;51.400;6.770;2022-09-23T01:09:17;9.00;99.80
32614;DHT22;19031;51.400;6.770;2022-09-23T01:14:36;9.00;99.90
32614;DHT22;19031;51.400;6.770;2022-09-23T01:22:16;9.00;99.90
32614;DHT22;19031;51.400;6.770;2022-09-23T01:28:04;8.90;99.90
32614;DHT22;19031;51.400;6.770;2022-09-23T01:33:50;8.90;99.90
32614;DHT22;19031;51.400;6.770;2022-09-23T01:36:35;8.90;99.90
32614;DHT22;19031;51.400;6.770;2022-09-23T01:39:33;8.90;99.90
32614;DHT22;19031;51.400;6.770;2022-09-23T01:42:16;8.90;99.90
32614;DHT22;19031;51.400;6.770;2022-09-23T01:44:52;8.80;99.90
32614;DHT22;19031;51.400;6.770;2022-09-23T01:47:26;8.80;99.90
32614;DHT22;19031;51.400;6.770;2022-09-23T01:50:07;8.80;99.90
32614;DHT22;19031;51.400;6.770;2022-09-23T01:52:56;8.80;99.90
32614;DHT22;19031;51.400;6.770;2022-09-23T01:55:28;8.80;99.90
32614;DHT22;19031;51.400;6.770;2022-09-23T01:58:08;8.70;99.90
32614;DHT22;19031;51.400;6.770;2022-09-23T02:00:48;8.70;99.90
32614;DHT22;19031;51.400;6.770;2022-09-23T02:03:25;8.70;99.90
32614;DHT22;19031;51.400;6.770;2022-09-23T02:06:00;8.70;99.90
32614;DHT22;19031;51.400;6.770;2022-09-23T02:08:43;8.60;99.90
32614;DHT22;19031;51.400;6.770;2022-09-23T02:11:12;8.70;99.90
32614;DHT22;19031;51.400;6.770;2022-09-23T02:14:05;8.60;99.90
32614;DHT22;19031;51.400;6.770;2022-09-23T02:21:43;8.70;99.90
32614;DHT22;19031;51.400;6.770;2022-09-23T02:24:21;8.60;99.90
32614;DHT22;19031;51.400;6.770;2022-09-23T02:26:57;8.60;99.90
32614;DHT22;19031;51.400;6.770;2022-09-23T02:32:18;8.60;99.90
32614;DHT22;19031;51.400;6.770;2022-09-23T02:37:42;8.60;99.90
32614;DHT22;19031;51.400;6.770;2022-09-23T02:43:08;8.60;99.90
32614;DHT22;19031;51.400;6.770;2022-09-23T02:45:35;8.70;99.90
32614;DHT22;19031;51.400;6.770;2022-09-23T02:48:12;8.70;99.90
32614;DHT22;19031;51.400;6.770;2022-09-23T02:50:39;8.60;99.90
32614;DHT22;19031;51.400;6.770;2022-09-23T02:53:06;8.60;99.90
32614;DHT22;19031;51.400;6.770;2022-09-23T02:55:32;8.70;99.90
32614;DHT22;19031;51.400;6.770;2022-09-23T02:58:00;8.60;99.90
32614;DHT22;19031;51.400;6.770;2022-09-23T03:00:47;8.60;99.90
32614;DHT22;19031;51.400;6.770;2022-09-23T03:05:56;8.60;99.90
32614;DHT22;19031;51.400;6.770;2022-09-23T03:08:34;8.70;99.90
32614;DHT22;19031;51.400;6.770;2022-09-23T03:11:06;8.60;99.90
32614;DHT22;19031;51.400;6.770;2022-09-23T03:16:40;8.60;99.90
32614;DHT22;19031;51.400;6.770;2022-09-23T03:19:30;8.60;99.90
32614;DHT22;19031;51.400;6.770;2022-09-23T03:22:11;8.50;99.90
32614;DHT22;19031;51.400;6.770;2022-09-23T03:24:38;8.50;99.90
32614;DHT22;19031;51.400;6.770;2022-09-23T03:27:09;8.40;99.90
32614;DHT22;19031;51.400;6.770;2022-09-23T03:29:42;8.50;99.90
32614;DHT22;19031;51.400;6.770;2022-09-23T03:32:11;8.40;99.90
32614;DHT22;19031;51.400;6.770;2022-09-23T03:34:37;8.40;99.90
32614;DHT22;19031;51.400;6.770;2022-09-23T03:37:10;8.40;99.90
32614;DHT22;19031;51.400;6.770;2022-09-23T03:39:42;8.30;99.90
32614;DHT22;19031;51.400;6.770;2022-09-23T03:42:34;8.30;99.90
32614;DHT22;19031;51.400;6.770;2022-09-23T03:45:04;8.30;99.90
32614;DHT22;19031;51.400;6.770;2022-09-23T03:47:33;8.30;99.90
32614;DHT22;19031;51.400;6.770;2022-09-23T03:49:59;8.30;99.90
32614;DHT22;19031;51.400;6.770;2022-09-23T03:52:25;8.30;99.90
32614;DHT22;19031;51.400;6.770;2022-09-23T03:54:50;8.20;99.90
32614;DHT22;19031;51.400;6.770;2022-09-23T03:57:17;8.20;99.90
32614;DHT22;19031;51.400;6.770;2022-09-23T03:59:42;8.20;99.90
32614;DHT22;19031;51.400;6.770;2022-09-23T04:02:08;8.10;99.90
32614;DHT22;19031;51.400;6.770;2022-09-23T04:04:37;8.10;99.90
32614;DHT22;19031;51.400;6.770;2022-09-23T04:07:04;8.20;99.90
32614;DHT22;19031;51.400;6.770;2022-09-23T04:09:30;8.10;99.90
32614;DHT22;19031;51.400;6.770;2022-09-23T04:11:56;8.10;99.90
32614;DHT22;19031;51.400;6.770;2022-09-23T04:14:22;8.00;99.90
32614;DHT22;19031;51.400;6.770;2022-09-23T04:16:49;8.00;99.90
32614;DHT22;19031;51.400;6.770;2022-09-23T04:19:15;8.00;99.90
32614;DHT22;19031;51.400;6.770;2022-09-23T04:21:42;8.00;99.90
32614;DHT22;19031;51.400;6.770;2022-09-23T04:24:09;8.00;99.90
32614;DHT22;19031;51.400;6.770;2022-09-23T04:26:35;7.90;99.90
32614;DHT22;19031;51.400;6.770;2022-09-23T04:29:02;7.90;99.90
32614;DHT22;19031;51.400;6.770;2022-09-23T04:31:29;7.90;99.90
32614;DHT22;19031;51.400;6.770;2022-09-23T04:33:55;7.90;99.90
32614;DHT22;19031;51.400;6.770;2022-09-23T04:36:21;7.80;99.90
32614;DHT22;19031;51.400;6.770;2022-09-23T04:38:47;7.80;99.90
32614;DHT22;19031;51.400;6.770;2022-09-23T04:41:14;7.90;99.90
32614;DHT22;19031;51.400;6.770;2022-09-23T04:43:40;7.90;99.90
32614;DHT22;19031;51.400;6.770;2022-09-23T04:46:07;7.80;99.90
32614;DHT22;19031;51.400;6.770;2022-09-23T04:48:35;7.90;99.90
32614;DHT22;19031;51.400;6.770;2022-09-23T04:51:12;7.90;99.90
32614;DHT22;19031;51.400;6.770;2022-09-23T04:53:41;7.90;99.90
32614;DHT22;19031;51.400;6.770;2022-09-23T04:56:12;7.90;99.90
32614;DHT22;19031;51.400;6.770;2022-09-23T04:58:38;7.80;99.90
32614;DHT22;19031;51.400;6.770;2022-09-23T05:01:13;7.90;99.90
32614;DHT22;19031;51.400;6.770;2022-09-23T05:03:40;7.80;99.90
32614;DHT22;19031;51.400;6.770;2022-09-23T05:06:06;7.90;99.90
32614;DHT22;19031;51.400;6.770;2022-09-23T05:08:33;7.90;99.90
32614;DHT22;19031;51.400;6.770;2022-09-23T05:11:00;7.90;99.90
32614;DHT22;19031;51.400;6.770;2022-09-23T05:13:26;8.00;99.90
32614;DHT22;19031;51.400;6.770;2022-09-23T05:15:59;7.90;99.90
32614;DHT22;19031;51.400;6.770;2022-09-23T05:18:34;7.90;99.90
32614;DHT22;19031;51.400;6.770;2022-09-23T05:21:01;7.90;99.90
32614;DHT22;19031;51.400;6.770;2022-09-23T05:23:27;7.90;99.90
32614;DHT22;19031;51.400;6.770;2022-09-23T05:26:01;7.90;99.90
32614;DHT22;19031;51.400;6.770;2022-09-23T05:28:29;7.90;99.90
32614;DHT22;19031;51.400;6.770;2022-09-23T05:31:02;7.90;99.90
32614;DHT22;19031;51.400;6.770;2022-09-23T05:33:28;7.90;99.90
32614;DHT22;19031;51.400;6.770;2022-09-23T05:35:54;7.80;99.90
32614;DHT22;19031;51.400;6.770;2022-09-23T05:38:20;7.80;99.90
32614;DHT22;19031;51.400;6.770;2022-09-23T05:40:45;7.80;99.90
32614;DHT22;19031;51.400;6.770;2022-09-23T05:43:11;7.80;99.90
32614;DHT22;19031;51.400;6.770;2022-09-23T05:45:36;7.80;99.90
32614;DHT22;19031;51.400;6.770;2022-09-23T05:48:02;7.90;99.90
32614;DHT22;19031;51.400;6.770;2022-09-23T05:50:28;7.90;99.90
32614;DHT22;19031;51.400;6.770;2022-09-23T05:52:53;8.00;99.90
32614;DHT22;19031;51.400;6.770;2022-09-23T05:55:19;8.00;99.90
32614;DHT22;19031;51.400;6.770;2022-09-23T05:57:44;8.00;99.90
32614;DHT22;19031;51.400;6.770;2022-09-23T06:00:10;8.10;99.90
32614;DHT22;19031;51.400;6.770;2022-09-23T06:02:36;8.20;99.90
32614;DHT22;19031;51.400;6.770;2022-09-23T06:05:02;8.30;99.90
32614;DHT22;19031;51.400;6.770;2022-09-23T06:07:28;8.40;99.90
32614;DHT22;19031;51.400;6.770;2022-09-23T06:09:53;8.60;99.90
32614;DHT22;19031;51.400;6.770;2022-09-23T06:12:19;8.70;99.90
32614;DHT22;19031;51.400;6.770;2022-09-23T06:14:45;8.80;99.90
32614;DHT22;19031;51.400;6.770;2022-09-23T06:17:11;8.90;99.90
32614;DHT22;19031;51.400;6.770;2022-09-23T06:19:36;9.00;99.90
32614;DHT22;19031;51.400;6.770;2022-09-23T06:22:02;9.20;99.90
32614;DHT22;19031;51.400;6.770;2022-09-23T06:24:27;9.30;99.90
32614;DHT22;19031;51.400;6.770;2022-09-23T06:26:53;9.40;99.90
32614;DHT22;19031;51.400;6.770;2022-09-23T06:29:19;9.60;99.90
32614;DHT22;19031;51.400;6.770;2022-09-23T06:31:47;9.80;99.40
32614;DHT22;19031;51.400;6.770;2022-09-23T06:34:13;10.00;99.60
32614;DHT22;19031;51.400;6.770;2022-09-23T06:36:40;10.30;98.30
32614;DHT22;19031;51.400;6.770;2022-09-23T06:39:06;10.60;97.00
32614;DHT22;19031;51.400;6.770;2022-09-23T06:41:31;10.90;91.40
32614;DHT22;19031;51.400;6.770;2022-09-23T06:43:57;11.20;84.40
32614;DHT22;19031;51.400;6.770;2022-09-23T06:46:22;11.40;76.00
32614;DHT22;19031;51.400;6.770;2022-09-23T06:48:48;11.60;68.60
32614;DHT22;19031;51.400;6.770;2022-09-23T06:51:15;11.70;67.00
32614;DHT22;19031;51.400;6.770;2022-09-23T06:53:47;11.90;66.20
32614;DHT22;19031;51.400;6.770;2022-09-23T06:56:14;12.00;63.30
32614;DHT22;19031;51.400;6.770;2022-09-23T06:58:41;12.20;58.00
32614;DHT22;19031;51.400;6.770;2022-09-23T07:01:09;12.30;55.40
32614;DHT22;19031;51.400;6.770;2022-09-23T07:03:36;12.40;48.60
32614;DHT22;19031;51.400;6.770;2022-09-23T07:06:02;12.50;49.60
32614;DHT22;19031;51.400;6.770;2022-09-23T07:08:29;12.60;43.20
32614;DHT22;19031;51.400;6.770;2022-09-23T07:10:59;12.60;46.90
32614;DHT22;19031;51.400;6.770;2022-09-23T07:13:25;12.70;39.30
32614;DHT22;19031;51.400;6.770;2022-09-23T07:15:55;12.90;46.40
32614;DHT22;19031;51.400;6.770;2022-09-23T07:18:23;13.10;36.20
32614;DHT22;19031;51.400;6.770;2022-09-23T07:20:50;13.10;30.00
32614;DHT22;19031;51.400;6.770;2022-09-23T07:23:16;13.30;25.10
32614;DHT22;19031;51.400;6.770;2022-09-23T07:25:45;13.50;29.20
32614;DHT22;19031;51.400;6.770;2022-09-23T07:28:11;13.70;20.60
32614;DHT22;19031;51.400;6.770;2022-09-23T07:30:38;13.80;19.80
32614;DHT22;19031;51.400;6.770;2022-09-23T07:33:04;13.90;10.10
32614;DHT22;19031;51.400;6.770;2022-09-23T07:35:30;14.00;1.00
32614;DHT22;19031;51.400;6.770;2022-09-23T07:37:55;14.10;1.00
32614;DHT22;19031;51.400;6.770;2022-09-23T07:40:21;14.30;1.00
32614;DHT22;19031;51.400;6.770;2022-09-23T07:42:47;14.60;1.00
32614;DHT22;19031;51.400;6.770;2022-09-23T07:45:13;14.60;1.00
32614;DHT22;19031;51.400;6.770;2022-09-23T07:47:39;14.90;1.00
32614;DHT22;19031;51.400;6.770;2022-09-23T07:50:06;15.00;1.00
32614;DHT22;19031;51.400;6.770;2022-09-23T07:52:36;15.10;1.00
32614;DHT22;19031;51.400;6.770;2022-09-23T07:55:03;15.00;1.00
32614;DHT22;19031;51.400;6.770;2022-09-23T07:57:29;15.20;1.00
32614;DHT22;19031;51.400;6.770;2022-09-23T07:59:54;15.20;1.00
32614;DHT22;19031;51.400;6.770;2022-09-23T08:02:20;15.40;1.00
32614;DHT22;19031;51.400;6.770;2022-09-23T08:04:45;15.50;1.00
32614;DHT22;19031;51.400;6.770;2022-09-23T08:07:12;15.50;1.00
32614;DHT22;19031;51.400;6.770;2022-09-23T08:09:40;15.60;1.00
32614;DHT22;19031;51.400;6.770;2022-09-23T08:12:11;15.50;1.00
32614;DHT22;19031;51.400;6.770;2022-09-23T08:14:37;15.70;1.00
32614;DHT22;19031;51.400;6.770;2022-09-23T08:17:03;15.80;1.00
32614;DHT22;19031;51.400;6.770;2022-09-23T08:19:29;15.90;1.00
32614;DHT22;19031;51.400;6.770;2022-09-23T08:21:55;16.00;1.00
32614;DHT22;19031;51.400;6.770;2022-09-23T08:24:22;16.10;1.00
32614;DHT22;19031;51.400;6.770;2022-09-23T08:26:49;16.30;1.00
32614;DHT22;19031;51.400;6.770;2022-09-23T08:29:19;16.40;99.90
32614;DHT22;19031;51.400;6.770;2022-09-23T08:31:45;16.60;99.90
32614;DHT22;19031;51.400;6.770;2022-09-23T08:34:11;16.90;99.90
32614;DHT22;19031;51.400;6.770;2022-09-23T08:36:37;17.10;99.90
32614;DHT22;19031;51.400;6.770;2022-09-23T08:39:04;17.20;99.90
32614;DHT22;19031;51.400;6.770;2022-09-23T08:44:17;17.30;99.90
32614;DHT22;19031;51.400;6.770;2022-09-23T08:46:48;17.40;99.90
32614;DHT22;19031;51.400;6.770;2022-09-23T08:49:52;17.30;99.90
32614;DHT22;19031;51.400;6.770;2022-09-23T08:52:26;17.40;99.90
32614;DHT22;19031;51.400;6.770;2022-09-23T08:54:52;17.50;99.90
32614;DHT22;19031;51.400;6.770;2022-09-23T09:00:14;17.30;99.90
32614;DHT22;19031;51.400;6.770;2022-09-23T09:02:43;17.30;99.90
32614;DHT22;19031;51.400;6.770;2022-09-23T09:05:10;17.30;99.90
32614;DHT22;19031;51.400;6.770;2022-09-23T09:07:39;17.30;99.90
32614;DHT22;19031;51.400;6.770;2022-09-23T09:15:21;17.60;99.90
32614;DHT22;19031;51.400;6.770;2022-09-23T09:18:03;17.80;99.90
32614;DHT22;19031;51.400;6.770;2022-09-23T09:26:03;18.90;99.90
32614;DHT22;19031;51.400;6.770;2022-09-23T09:28:51;19.60;99.90
32614;DHT22;19031;51.400;6.770;2022-09-23T09:31:42;19.80;99.90
32614;DHT22;19031;51.400;6.770;2022-09-23T09:37:00;20.00;74.50
32614;DHT22;19031;51.400;6.770;2022-09-23T09:39:29;20.00;1.00
32614;DHT22;19031;51.400;6.770;2022-09-23T09:41:55;19.90;99.90
32614;DHT22;19031;51.400;6.770;2022-09-23T09:50:10;20.20;14.90
32614;DHT22;19031;51.400;6.770;2022-09-23T09:52:35;20.20;99.90
32614;DHT22;19031;51.400;6.770;2022-09-23T09:55:27;20.30;99.90
32614;DHT22;19031;51.400;6.770;2022-09-23T09:57:54;20.60;99.90
32614;DHT22;19031;51.400;6.770;2022-09-23T10:02:57;21.30;99.10
32614;DHT22;19031;51.400;6.770;2022-09-23T10:05:53;21.40;1.00
32614;DHT22;19031;51.400;6.770;2022-09-23T10:08:33;21.60;30.00
32614;DHT22;19031;51.400;6.770;2022-09-23T10:11:12;21.90;83.60
32614;DHT22;19031;51.400;6.770;2022-09-23T10:16:32;22.20;99.90
32614;DHT22;19031;51.400;6.770;2022-09-23T10:19:00;22.30;99.90
32614;DHT22;19031;51.400;6.770;2022-09-23T10:21:32;22.50;99.90
32614;DHT22;19031;51.400;6.770;2022-09-23T10:24:04;22.40;10.40
32614;DHT22;19031;51.400;6.770;2022-09-23T10:26:31;22.30;99.90
32614;DHT22;19031;51.400;6.770;2022-09-23T10:29:00;22.20;1.00
32614;DHT22;19031;51.400;6.770;2022-09-23T10:31:28;22.10;99.90
32614;DHT22;19031;51.400;6.770;2022-09-23T10:33:59;21.90;99.90
32614;DHT22;19031;51.400;6.770;2022-09-23T10:36:30;21.60;99.90
32614;DHT22;19031;51.400;6.770;2022-09-23T10:39:07;22.00;99.90
32614;DHT22;19031;51.400;6.770;2022-09-23T10:42:00;22.20;99.90
32614;DHT22;19031;51.400;6.770;2022-09-23T10:45:08;22.20;99.90
32614;DHT22;19031;51.400;6.770;2022-09-23T10:50:48;22.70;99.90
32614;DHT22;19031;51.400;6.770;2022-09-23T10:53:23;22.70;11.10
32614;DHT22;19031;51.400;6.770;2022-09-23T10:58:40;23.00;84.30
32614;DHT22;19031;51.400;6.770;2022-09-23T11:01:55;23.00;99.90
32614;DHT22;19031;51.400;6.770;2022-09-23T11:04:26;23.20;99.90
32614;DHT22;19031;51.400;6.770;2022-09-23T11:10:24;23.50;99.90
32614;DHT22;19031;51.400;6.770;2022-09-23T11:20:38;24.70;3.00
32614;DHT22;19031;51.400;6.770;2022-09-23T11:25:47;25.20;1.00
32614;DHT22;19031;51.400;6.770;2022-09-23T11:36:34;25.60;99.90
32614;DHT22;19031;51.400;6.770;2022-09-23T11:39:27;26.00;99.90
32614;DHT22;19031;51.400;6.770;2022-09-23T11:41:54;26.10;99.90
32614;DHT22;19031;51.400;6.770;2022-09-23T11:44:35;26.20;99.90
32614;DHT22;19031;51.400;6.770;2022-09-23T11:52:23;26.80;99.90
32614;DHT22;19031;51.400;6.770;2022-09-23T11:55:33;26.70;99.90
32614;DHT22;19031;51.400;6.770;2022-09-23T11:58:08;26.80;99.90
32614;DHT22;19031;51.400;6.770;2022-09-23T12:00:40;25.90;99.90
32614;DHT22;19031;51.400;6.770;2022-09-23T12:03:24;25.90;99.90
32614;DHT22;19031;51.400;6.770;2022-09-23T12:08:40;26.00;99.90
32614;DHT22;19031;51.400;6.770;2022-09-23T12:22:40;25.50;99.90
32614;DHT22;19031;51.400;6.770;2022-09-23T12:28:11;25.30;99.90
32614;DHT22;19031;51.400;6.770;2022-09-23T12:30:39;25.10;99.90
32614;DHT22;19031;51.400;6.770;2022-09-23T12:33:23;25.10;1.00
32614;DHT22;19031;51.400;6.770;2022-09-23T12:36:00;25.00;1.00
32614;DHT22;19031;51.400;6.770;2022-09-23T12:39:22;24.80;1.00
32614;DHT22;19031;51.400;6.770;2022-09-23T12:41:29;24.30;99.90
32614;DHT22;19031;51.400;6.770;2022-09-23T12:46:38;23.70;24.00
32614;DHT22;19031;51.400;6.770;2022-09-23T12:49:34;23.40;1.00
32614;DHT22;19031;51.400;6.770;2022-09-23T12:52:27;23.00;99.90
32614;DHT22;19031;51.400;6.770;2022-09-23T12:55:09;22.70;99.90
32614;DHT22;19031;51.400;6.770;2022-09-23T12:57:43;22.50;99.90
32614;DHT22;19031;51.400;6.770;2022-09-23T13:06:00;22.40;99.90
32614;DHT22;19031;51.400;6.770;2022-09-23T13:08:44;22.10;59.40
32614;DHT22;19031;51.400;6.770;2022-09-23T13:11:28;22.00;99.90
32614;DHT22;19031;51.400;6.770;2022-09-23T13:13:56;22.00;99.90
32614;DHT22;19031;51.400;6.770;2022-09-23T13:17:01;22.10;99.90
32614;DHT22;19031;51.400;6.770;2022-09-23T13:29:42;21.60;1.00
32614;DHT22;19031;51.400;6.770;2022-09-23T13:32:16;21.50;1.00
32614;DHT22;19031;51.400;6.770;2022-09-23T13:37:23;21.30;4.60
32614;DHT22;19031;51.400;6.770;2022-09-23T13:39:49;21.20;99.90
32614;DHT22;19031;51.400;6.770;2022-09-23T13:42:25;21.20;1.00
32614;DHT22;19031;51.400;6.770;2022-09-23T13:44:55;21.30;1.00
32614;DHT22;19031;51.400;6.770;2022-09-23T13:47:23;21.40;33.90
32614;DHT22;19031;51.400;6.770;2022-09-23T13:49:52;21.50;1.00
32614;DHT22;19031;51.400;6.770;2022-09-23T13:52:28;21.60;99.90
32614;DHT22;19031;51.400;6.770;2022-09-23T13:54:55;21.60;99.90
32614;DHT22;19031;51.400;6.770;2022-09-23T13:57:26;21.70;1.00
32614;DHT22;19031;51.400;6.770;2022-09-23T13:59:58;21.70;1.00
32614;DHT22;19031;51.400;6.770;2022-09-23T14:02:24;21.70;99.90
32614;DHT22;19031;51.400;6.770;2022-09-23T14:04:50;21.60;4.50
32614;DHT22;19031;51.400;6.770;2022-09-23T14:07:17;21.50;1.00
32614;DHT22;19031;51.400;6.770;2022-09-23T14:09:46;21.60;99.90
32614;DHT22;19031;51.400;6.770;2022-09-23T14:12:13;21.60;99.90
32614;DHT22;19031;51.400;6.770;2022-09-23T14:14:40;21.50;99.90
32614;DHT22;19031;51.400;6.770;2022-09-23T14:17:07;21.40;99.90
32614;DHT22;19031;51.400;6.770;2022-09-23T14:19:34;21.30;99.90
32614;DHT22;19031;51.400;6.770;2022-09-23T14:22:01;21.30;1.00
32614;DHT22;19031;51.400;6.770;2022-09-23T14:24:35;21.30;99.90
32614;DHT22;19031;51.400;6.770;2022-09-23T14:29:37;21.20;23.40
32614;DHT22;19031;51.400;6.770;2022-09-23T14:32:18;21.20;1.00
32614;DHT22;19031;51.400;6.770;2022-09-23T14:40:31;21.10;1.00
32614;DHT22;19031;51.400;6.770;2022-09-23T14:43:13;21.00;1.00
32614;DHT22;19031;51.400;6.770;2022-09-23T14:45:43;21.00;99.90
32614;DHT22;19031;51.400;6.770;2022-09-23T14:48:16;20.90;99.90
32614;DHT22;19031;51.400;6.770;2022-09-23T14:50:48;20.90;99.90
32614;DHT22;19031;51.400;6.770;2022-09-23T14:55:48;20.80;99.90
32614;DHT22;19031;51.400;6.770;2022-09-23T14:58:18;20.70;99.90
32614;DHT22;19031;51.400;6.770;2022-09-23T15:00:59;20.60;52.20
32614;DHT22;19031;51.400;6.770;2022-09-23T15:03:26;20.50;99.90
32614;DHT22;19031;51.400;6.770;2022-09-23T15:06:02;20.50;91.50
32614;DHT22;19031;51.400;6.770;2022-09-23T15:08:29;20.30;99.90
32614;DHT22;19031;51.400;6.770;2022-09-23T15:10:56;20.10;99.90
32614;DHT22;19031;51.400;6.770;2022-09-23T15:13:26;20.10;90.60
32614;DHT22;19031;51.400;6.770;2022-09-23T15:15:54;19.90;99.90
32614;DHT22;19031;51.400;6.770;2022-09-23T15:18:23;20.00;99.90
32614;DHT22;19031;51.400;6.770;2022-09-23T15:20:53;19.80;99.90
32614;DHT22;19031;51.400;6.770;2022-09-23T15:23:43;19.80;1.00
32614;DHT22;19031;51.400;6.770;2022-09-23T15:26:13;19.70;1.00
32614;DHT22;19031;51.400;6.770;2022-09-23T15:28:39;19.70;99.90
32614;DHT22;19031;51.400;6.770;2022-09-23T15:31:13;19.60;99.90
32614;DHT22;19031;51.400;6.770;2022-09-23T15:33:42;19.60;99.90
32614;DHT22;19031;51.400;6.770;2022-09-23T15:38:45;19.40;99.90
32614;DHT22;19031;51.400;6.770;2022-09-23T15:41:11;19.40;99.90
32614;DHT22;19031;51.400;6.770;2022-09-23T15:43:39;19.30;99.90
32614;DHT22;19031;51.400;6.770;2022-09-23T15:46:26;19.30;99.90
32614;DHT22;19031;51.400;6.770;2022-09-23T15:49:00;19.20;99.90
32614;DHT22;19031;51.400;6.770;2022-09-23T15:51:27;19.10;99.90
32614;DHT22;19031;51.400;6.770;2022-09-23T15:53:53;19.10;99.90
32614;DHT22;19031;51.400;6.770;2022-09-23T15:56:20;19.10;80.40
32614;DHT22;19031;51.400;6.770;2022-09-23T15:58:47;19.10;99.90
32614;DHT22;19031;51.400;6.770;2022-09-23T16:01:26;19.00;18.30
32614;DHT22;19031;51.400;6.770;2022-09-23T16:03:53;18.90;89.00
32614;DHT22;19031;51.400;6.770;2022-09-23T16:06:18;18.90;40.60
32614;DHT22;19031;51.400;6.770;2022-09-23T16:08:44;18.80;15.00
32614;DHT22;19031;51.400;6.770;2022-09-23T16:11:25;18.80;1.00
32614;DHT22;19031;51.400;6.770;2022-09-23T16:13:52;18.80;1.00
32614;DHT22;19031;51.400;6.770;2022-09-23T16:16:18;18.70;99.90
32614;DHT22;19031;51.400;6.770;2022-09-23T16:18:47;18.60;99.90
32614;DHT22;19031;51.400;6.770;2022-09-23T16:21:15;18.50;1.00
32614;DHT22;19031;51.400;6.770;2022-09-23T16:23:44;18.50;93.20
32614;DHT22;19031;51.400;6.770;2022-09-23T16:28:41;18.50;99.90
32614;DHT22;19031;51.400;6.770;2022-09-23T16:31:07;18.30;99.90
32614;DHT22;19031;51.400;6.770;2022-09-23T16:33:32;18.20;99.90
32614;DHT22;19031;51.400;6.770;2022-09-23T16:35:58;18.30;99.90
32614;DHT22;19031;51.400;6.770;2022-09-23T16:38:25;18.20;99.90
32614;DHT22;19031;51.400;6.770;2022-09-23T16:40:51;18.10;99.90
32614;DHT22;19031;51.400;6.770;2022-09-23T16:43:17;18.00;99.90
32614;DHT22;19031;51.400;6.770;2022-09-23T16:45:43;18.00;99.90
32614;DHT22;19031;51.400;6.770;2022-09-23T16:48:10;17.90;99.90
32614;DHT22;19031;51.400;6.770;2022-09-23T16:50:36;17.90;99.90
32614;DHT22;19031;51.400;6.770;2022-09-23T16:53:02;17.80;99.90
32614;DHT22;19031;51.400;6.770;2022-09-23T16:55:27;17.70;99.90
32614;DHT22;19031;51.400;6.770;2022-09-23T16:57:53;17.60;99.90
32614;DHT22;19031;51.400;6.770;2022-09-23T17:00:20;17.50;99.90
32614;DHT22;19031;51.400;6.770;2022-09-23T17:03:04;17.50;99.90
32614;DHT22;19031;51.400;6.770;2022-09-23T17:05:49;17.30;99.90
32614;DHT22;19031;51.400;6.770;2022-09-23T17:08:16;17.30;99.90
32614;DHT22;19031;51.400;6.770;2022-09-23T17:10:44;17.20;99.90
32614;DHT22;19031;51.400;6.770;2022-09-23T17:13:11;17.20;99.90
32614;DHT22;19031;51.400;6.770;2022-09-23T17:15:42;17.10;99.90
32614;DHT22;19031;51.400;6.770;2022-09-23T17:18:08;17.00;1.00
32614;DHT22;19031;51.400;6.770;2022-09-23T17:20:34;17.00;99.90
32614;DHT22;19031;51.400;6.770;2022-09-23T17:23:02;16.90;1.00
32614;DHT22;19031;51.400;6.770;2022-09-23T17:25:29;17.00;99.90
32614;DHT22;19031;51.400;6.770;2022-09-23T17:27:55;16.90;99.90
32614;DHT22;19031;51.400;6.770;2022-09-23T17:30:22;16.80;1.00
32614;DHT22;19031;51.400;6.770;2022-09-23T17:32:48;16.70;1.00
32614;DHT22;19031;51.400;6.770;2022-09-23T17:35:13;16.70;99.90
32614;DHT22;19031;51.400;6.770;2022-09-23T17:37:39;16.70;1.00
32614;DHT22;19031;51.400;6.770;2022-09-23T17:40:05;16.70;1.00
32614;DHT22;19031;51.400;6.770;2022-09-23T17:42:31;16.70;1.00
32614;DHT22;19031;51.400;6.770;2022-09-23T17:44:56;16.60;1.00
32614;DHT22;19031;51.400;6.770;2022-09-23T17:47:24;16.60;1.00
32614;DHT22;19031;51.400;6.770;2022-09-23T17:49:50;16.50;1.00
32614;DHT22;19031;51.400;6.770;2022-09-23T17:52:17;16.50;1.00
32614;DHT22;19031;51.400;6.770;2022-09-23T17:54:43;16.50;1.00
32614;DHT22;19031;51.400;6.770;2022-09-23T17:57:10;16.40;1.00
32614;DHT22;19031;51.400;6.770;2022-09-23T17:59:36;16.40;1.00
32614;DHT22;19031;51.400;6.770;2022-09-23T18:02:02;16.30;1.00
32614;DHT22;19031;51.400;6.770;2022-09-23T18:04:27;16.30;1.00
32614;DHT22;19031;51.400;6.770;2022-09-23T18:06:53;16.20;1.00
32614;DHT22;19031;51.400;6.770;2022-09-23T18:09:18;16.20;1.00
32614;DHT22;19031;51.400;6.770;2022-09-23T18:11:45;16.10;1.00
32614;DHT22;19031;51.400;6.770;2022-09-23T18:14:14;16.10;1.00
32614;DHT22;19031;51.400;6.770;2022-09-23T18:16:42;16.00;1.00
32614;DHT22;19031;51.400;6.770;2022-09-23T18:19:13;15.90;1.00
32614;DHT22;19031;51.400;6.770;2022-09-23T18:21:42;16.00;1.00
32614;DHT22;19031;51.400;6.770;2022-09-23T18:24:09;15.80;1.00
32614;DHT22;19031;51.400;6.770;2022-09-23T18:26:35;15.90;1.00
32614;DHT22;19031;51.400;6.770;2022-09-23T18:29:01;15.80;1.00
32614;DHT22;19031;51.400;6.770;2022-09-23T18:31:28;15.70;1.00
32614;DHT22;19031;51.400;6.770;2022-09-23T18:34:03;15.70;1.00